sensor_id;sensor_type;location;lat;lon;timestamp;P1;durP1;ratioP1;P2;durP2;ratioP2
18360;SDS011;9308;48.550;9.108;2023-02-03T00:00:31;2.70;;;2.60;;
18360;SDS011;9308;48.550;9.108;2023-02-03T00:02:56;3.33;;;3.03;;
18360;SDS011;9308;48.550;9.108;2023-02-03T00:05:22;2.90;;;2.70;;
18360;SDS011;9308;48.550;9.108;2023-02-03T00:07:48;3.07;;;2.80;;
18360;SDS011;9308;48.550;9.108;2023-02-03T00:10:13;3.20;;;2.80;;
18360;SDS011;9308;48.550;9.108;2023-02-03T00:12:40;2.73;;;2.50;;
18360;SDS011;9308;48.550;9.108;2023-02-03T00:15:05;3.43;;;3.13;;
18360;SDS011;9308;48.550;9.108;2023-02-03T00:17:31;3.43;;;3.10;;
18360;SDS011;9308;48.550;9.108;2023-02-03T00:19:57;3.03;;;2.83;;
18360;SDS011;9308;48.550;9.108;2023-02-03T00:22:22;4.53;;;3.40;;
18360;SDS011;9308;48.550;9.108;2023-02-03T00:24:47;4.13;;;2.93;;
18360;SDS011;9308;48.550;9.108;2023-02-03T00:27:13;3.43;;;2.80;;
18360;SDS011;9308;48.550;9.108;2023-02-03T00:29:38;4.23;;;2.90;;
18360;SDS011;9308;48.550;9.108;2023-02-03T00:32:04;2.50;;;2.40;;
18360;SDS011;9308;48.550;9.108;2023-02-03T00:34:29;4.60;;;3.00;;
18360;SDS011;9308;48.550;9.108;2023-02-03T00:36:55;3.00;;;2.80;;
18360;SDS011;9308;48.550;9.108;2023-02-03T00:39:21;3.20;;;2.80;;
18360;SDS011;9308;48.550;9.108;2023-02-03T00:41:46;3.20;;;3.00;;
18360;SDS011;9308;48.550;9.108;2023-02-03T00:44:12;3.40;;;3.20;;
18360;SDS011;9308;48.550;9.108;2023-02-03T00:46:39;2.97;;;2.77;;
18360;SDS011;9308;48.550;9.108;2023-02-03T00:49:05;3.17;;;2.93;;
18360;SDS011;9308;48.550;9.108;2023-02-03T00:51:31;3.50;;;2.80;;
18360;SDS011;9308;48.550;9.108;2023-02-03T00:53:57;3.10;;;2.90;;
18360;SDS011;9308;48.550;9.108;2023-02-03T00:56:22;3.47;;;3.17;;
18360;SDS011;9308;48.550;9.108;2023-02-03T00:58:48;3.57;;;3.27;;
18360;SDS011;9308;48.550;9.108;2023-02-03T01:01:13;3.33;;;3.03;;
18360;SDS011;9308;48.550;9.108;2023-02-03T01:03:39;3.27;;;2.97;;
18360;SDS011;9308;48.550;9.108;2023-02-03T01:08:40;3.43;;;3.13;;
18360;SDS011;9308;48.550;9.108;2023-02-03T01:11:16;2.93;;;2.73;;
18360;SDS011;9308;48.550;9.108;2023-02-03T01:13:44;4.70;;;3.03;;
18360;SDS011;9308;48.550;9.108;2023-02-03T01:16:10;3.40;;;3.10;;
18360;SDS011;9308;48.550;9.108;2023-02-03T01:18:37;3.30;;;3.10;;
18360;SDS011;9308;48.550;9.108;2023-02-03T01:21:04;3.30;;;3.00;;
18360;SDS011;9308;48.550;9.108;2023-02-03T01:23:37;3.00;;;2.80;;
18360;SDS011;9308;48.550;9.108;2023-02-03T01:26:03;3.13;;;2.93;;
18360;SDS011;9308;48.550;9.108;2023-02-03T01:28:30;3.10;;;2.60;;
18360;SDS011;9308;48.550;9.108;2023-02-03T01:30:56;3.03;;;2.83;;
18360;SDS011;9308;48.550;9.108;2023-02-03T01:33:22;2.70;;;2.50;;
18360;SDS011;9308;48.550;9.108;2023-02-03T01:35:47;2.87;;;2.67;;
18360;SDS011;9308;48.550;9.108;2023-02-03T01:38:12;3.67;;;2.60;;
18360;SDS011;9308;48.550;9.108;2023-02-03T01:40:44;4.43;;;2.80;;
18360;SDS011;9308;48.550;9.108;2023-02-03T01:43:10;3.90;;;3.40;;
18360;SDS011;9308;48.550;9.108;2023-02-03T01:45:35;2.90;;;2.70;;
18360;SDS011;9308;48.550;9.108;2023-02-03T01:48:02;2.90;;;2.70;;
18360;SDS011;9308;48.550;9.108;2023-02-03T01:50:29;3.23;;;3.03;;
18360;SDS011;9308;48.550;9.108;2023-02-03T01:53:05;2.90;;;2.70;;
18360;SDS011;9308;48.550;9.108;2023-02-03T01:55:33;2.77;;;2.57;;
18360;SDS011;9308;48.550;9.108;2023-02-03T01:58:05;3.10;;;2.90;;
18360;SDS011;9308;48.550;9.108;2023-02-03T02:00:36;3.80;;;2.73;;
18360;SDS011;9308;48.550;9.108;2023-02-03T02:03:01;2.60;;;2.40;;
18360;SDS011;9308;48.550;9.108;2023-02-03T02:05:37;2.77;;;2.30;;
18360;SDS011;9308;48.550;9.108;2023-02-03T02:08:10;3.00;;;2.70;;
18360;SDS011;9308;48.550;9.108;2023-02-03T02:10:37;2.87;;;2.67;;
18360;SDS011;9308;48.550;9.108;2023-02-03T02:13:03;2.63;;;2.43;;
18360;SDS011;9308;48.550;9.108;2023-02-03T02:18:14;3.70;;;3.10;;
18360;SDS011;9308;48.550;9.108;2023-02-03T02:23:35;5.47;;;2.50;;
18360;SDS011;9308;48.550;9.108;2023-02-03T02:26:47;5.47;;;3.60;;
18360;SDS011;9308;48.550;9.108;2023-02-03T02:37:39;2.83;;;2.57;;
18360;SDS011;9308;48.550;9.108;2023-02-03T02:42:56;2.97;;;2.73;;
18360;SDS011;9308;48.550;9.108;2023-02-03T02:45:34;2.53;;;2.33;;
18360;SDS011;9308;48.550;9.108;2023-02-03T02:48:12;2.90;;;2.70;;
18360;SDS011;9308;48.550;9.108;2023-02-03T02:50:45;2.60;;;2.40;;
18360;SDS011;9308;48.550;9.108;2023-02-03T02:53:13;2.90;;;2.70;;
18360;SDS011;9308;48.550;9.108;2023-02-03T02:55:40;4.57;;;2.40;;
18360;SDS011;9308;48.550;9.108;2023-02-03T02:58:08;2.23;;;2.03;;
18360;SDS011;9308;48.550;9.108;2023-02-03T03:00:37;2.97;;;2.60;;
18360;SDS011;9308;48.550;9.108;2023-02-03T03:03:12;2.90;;;2.60;;
18360;SDS011;9308;48.550;9.108;2023-02-03T03:05:39;2.53;;;2.33;;
18360;SDS011;9308;48.550;9.108;2023-02-03T03:08:06;2.33;;;2.20;;
18360;SDS011;9308;48.550;9.108;2023-02-03T03:10:36;2.27;;;2.17;;
18360;SDS011;9308;48.550;9.108;2023-02-03T03:13:06;3.20;;;2.33;;
18360;SDS011;9308;48.550;9.108;2023-02-03T03:15:36;2.60;;;2.40;;
18360;SDS011;9308;48.550;9.108;2023-02-03T03:18:13;1.80;;;1.70;;
18360;SDS011;9308;48.550;9.108;2023-02-03T03:20:47;2.10;;;1.90;;
18360;SDS011;9308;48.550;9.108;2023-02-03T03:23:21;2.00;;;1.90;;
18360;SDS011;9308;48.550;9.108;2023-02-03T03:25:52;2.20;;;2.00;;
18360;SDS011;9308;48.550;9.108;2023-02-03T03:28:37;1.90;;;1.80;;
18360;SDS011;9308;48.550;9.108;2023-02-03T03:31:09;1.83;;;1.73;;
18360;SDS011;9308;48.550;9.108;2023-02-03T03:33:35;2.90;;;2.00;;
18360;SDS011;9308;48.550;9.108;2023-02-03T03:36:08;1.60;;;1.50;;
18360;SDS011;9308;48.550;9.108;2023-02-03T03:38:43;1.93;;;1.80;;
18360;SDS011;9308;48.550;9.108;2023-02-03T03:41:31;1.90;;;1.80;;
18360;SDS011;9308;48.550;9.108;2023-02-03T03:44:10;2.10;;;1.77;;
18360;SDS011;9308;48.550;9.108;2023-02-03T03:47:26;3.20;;;2.10;;
18360;SDS011;9308;48.550;9.108;2023-02-03T03:49:31;1.70;;;1.60;;
18360;SDS011;9308;48.550;9.108;2023-02-03T03:52:00;2.60;;;2.00;;
18360;SDS011;9308;48.550;9.108;2023-02-03T03:54:29;2.00;;;1.80;;
18360;SDS011;9308;48.550;9.108;2023-02-03T03:57:16;2.90;;;2.20;;
18360;SDS011;9308;48.550;9.108;2023-02-03T03:59:49;1.63;;;1.53;;
18360;SDS011;9308;48.550;9.108;2023-02-03T04:02:15;2.20;;;2.07;;
18360;SDS011;9308;48.550;9.108;2023-02-03T04:04:44;1.80;;;1.50;;
18360;SDS011;9308;48.550;9.108;2023-02-03T04:07:11;3.47;;;2.00;;
18360;SDS011;9308;48.550;9.108;2023-02-03T04:09:37;1.97;;;1.87;;
18360;SDS011;9308;48.550;9.108;2023-02-03T04:12:04;1.80;;;1.70;;
18360;SDS011;9308;48.550;9.108;2023-02-03T04:14:40;2.10;;;2.00;;
18360;SDS011;9308;48.550;9.108;2023-02-03T04:17:06;1.90;;;1.80;;
18360;SDS011;9308;48.550;9.108;2023-02-03T04:19:32;2.00;;;1.80;;
18360;SDS011;9308;48.550;9.108;2023-02-03T04:21:57;1.70;;;1.60;;
18360;SDS011;9308;48.550;9.108;2023-02-03T04:24:23;2.00;;;1.90;;
18360;SDS011;9308;48.550;9.108;2023-02-03T04:26:48;1.97;;;1.87;;
18360;SDS011;9308;48.550;9.108;2023-02-03T04:29:14;1.80;;;1.70;;
18360;SDS011;9308;48.550;9.108;2023-02-03T04:31:39;3.03;;;2.20;;
18360;SDS011;9308;48.550;9.108;2023-02-03T04:34:05;2.03;;;1.90;;
18360;SDS011;9308;48.550;9.108;2023-02-03T04:36:30;2.70;;;1.90;;
18360;SDS011;9308;48.550;9.108;2023-02-03T04:38:56;2.17;;;1.97;;
18360;SDS011;9308;48.550;9.108;2023-02-03T04:41:21;2.07;;;1.83;;
18360;SDS011;9308;48.550;9.108;2023-02-03T04:43:46;2.00;;;1.90;;
18360;SDS011;9308;48.550;9.108;2023-02-03T04:46:12;2.57;;;1.90;;
18360;SDS011;9308;48.550;9.108;2023-02-03T04:48:37;3.27;;;2.97;;
18360;SDS011;9308;48.550;9.108;2023-02-03T04:51:03;2.90;;;1.80;;
18360;SDS011;9308;48.550;9.108;2023-02-03T04:53:30;1.87;;;1.77;;
18360;SDS011;9308;48.550;9.108;2023-02-03T04:55:56;2.40;;;2.10;;
18360;SDS011;9308;48.550;9.108;2023-02-03T04:58:22;2.10;;;1.90;;
18360;SDS011;9308;48.550;9.108;2023-02-03T05:00:48;2.20;;;2.10;;
18360;SDS011;9308;48.550;9.108;2023-02-03T05:03:13;1.80;;;1.70;;
18360;SDS011;9308;48.550;9.108;2023-02-03T05:05:38;1.97;;;1.87;;
18360;SDS011;9308;48.550;9.108;2023-02-03T05:08:04;1.80;;;1.70;;
18360;SDS011;9308;48.550;9.108;2023-02-03T05:10:29;2.37;;;1.80;;
18360;SDS011;9308;48.550;9.108;2023-02-03T05:12:55;1.90;;;1.80;;
18360;SDS011;9308;48.550;9.108;2023-02-03T05:15:20;2.00;;;1.90;;
18360;SDS011;9308;48.550;9.108;2023-02-03T05:17:46;3.43;;;2.13;;
18360;SDS011;9308;48.550;9.108;2023-02-03T05:20:11;2.57;;;2.10;;
18360;SDS011;9308;48.550;9.108;2023-02-03T05:22:37;2.63;;;2.33;;
18360;SDS011;9308;48.550;9.108;2023-02-03T05:25:02;2.20;;;2.10;;
18360;SDS011;9308;48.550;9.108;2023-02-03T05:27:28;2.17;;;2.07;;
18360;SDS011;9308;48.550;9.108;2023-02-03T05:29:54;2.30;;;2.10;;
18360;SDS011;9308;48.550;9.108;2023-02-03T05:32:19;2.30;;;2.10;;
18360;SDS011;9308;48.550;9.108;2023-02-03T05:34:45;2.50;;;1.90;;
18360;SDS011;9308;48.550;9.108;2023-02-03T05:37:11;1.73;;;1.63;;
18360;SDS011;9308;48.550;9.108;2023-02-03T05:39:36;2.20;;;2.10;;
18360;SDS011;9308;48.550;9.108;2023-02-03T05:42:02;2.30;;;2.10;;
18360;SDS011;9308;48.550;9.108;2023-02-03T05:44:28;2.57;;;1.90;;
18360;SDS011;9308;48.550;9.108;2023-02-03T05:46:55;2.90;;;2.03;;
18360;SDS011;9308;48.550;9.108;2023-02-03T05:49:22;2.40;;;2.20;;
18360;SDS011;9308;48.550;9.108;2023-02-03T05:51:48;1.93;;;1.83;;
18360;SDS011;9308;48.550;9.108;2023-02-03T05:54:15;2.00;;;1.90;;
18360;SDS011;9308;48.550;9.108;2023-02-03T05:56:41;1.90;;;1.80;;
18360;SDS011;9308;48.550;9.108;2023-02-03T05:59:06;2.40;;;2.17;;
18360;SDS011;9308;48.550;9.108;2023-02-03T06:01:32;3.03;;;1.83;;
18360;SDS011;9308;48.550;9.108;2023-02-03T06:03:58;1.53;;;1.53;;
18360;SDS011;9308;48.550;9.108;2023-02-03T06:06:24;2.27;;;1.80;;
18360;SDS011;9308;48.550;9.108;2023-02-03T06:08:51;2.27;;;2.10;;
18360;SDS011;9308;48.550;9.108;2023-02-03T06:11:20;2.43;;;2.23;;
18360;SDS011;9308;48.550;9.108;2023-02-03T06:13:46;2.00;;;1.90;;
18360;SDS011;9308;48.550;9.108;2023-02-03T06:16:11;1.90;;;1.80;;
18360;SDS011;9308;48.550;9.108;2023-02-03T06:18:36;3.30;;;2.10;;
18360;SDS011;9308;48.550;9.108;2023-02-03T06:21:02;3.00;;;2.20;;
18360;SDS011;9308;48.550;9.108;2023-02-03T06:23:27;2.13;;;1.70;;
18360;SDS011;9308;48.550;9.108;2023-02-03T06:25:53;2.20;;;2.00;;
18360;SDS011;9308;48.550;9.108;2023-02-03T06:28:18;4.60;;;2.20;;
18360;SDS011;9308;48.550;9.108;2023-02-03T06:30:43;2.03;;;1.93;;
18360;SDS011;9308;48.550;9.108;2023-02-03T06:33:09;2.03;;;1.93;;
18360;SDS011;9308;48.550;9.108;2023-02-03T06:35:34;2.13;;;2.03;;
18360;SDS011;9308;48.550;9.108;2023-02-03T06:38:00;2.23;;;2.13;;
18360;SDS011;9308;48.550;9.108;2023-02-03T06:40:25;3.80;;;2.50;;
18360;SDS011;9308;48.550;9.108;2023-02-03T06:42:51;2.57;;;2.37;;
18360;SDS011;9308;48.550;9.108;2023-02-03T06:45:16;2.40;;;2.20;;
18360;SDS011;9308;48.550;9.108;2023-02-03T06:47:42;2.93;;;2.03;;
18360;SDS011;9308;48.550;9.108;2023-02-03T06:50:10;2.27;;;2.17;;
18360;SDS011;9308;48.550;9.108;2023-02-03T06:52:37;2.33;;;2.13;;
18360;SDS011;9308;48.550;9.108;2023-02-03T06:55:03;2.47;;;2.27;;
18360;SDS011;9308;48.550;9.108;2023-02-03T06:57:29;1.90;;;1.80;;
18360;SDS011;9308;48.550;9.108;2023-02-03T06:59:55;2.43;;;2.33;;
18360;SDS011;9308;48.550;9.108;2023-02-03T07:02:20;3.07;;;2.37;;
18360;SDS011;9308;48.550;9.108;2023-02-03T07:04:46;2.23;;;2.13;;
18360;SDS011;9308;48.550;9.108;2023-02-03T07:07:11;3.00;;;2.80;;
18360;SDS011;9308;48.550;9.108;2023-02-03T07:09:38;2.90;;;2.50;;
18360;SDS011;9308;48.550;9.108;2023-02-03T07:12:04;2.10;;;1.90;;
18360;SDS011;9308;48.550;9.108;2023-02-03T07:14:30;4.23;;;2.43;;
18360;SDS011;9308;48.550;9.108;2023-02-03T07:16:56;5.20;;;2.40;;
18360;SDS011;9308;48.550;9.108;2023-02-03T07:19:21;2.70;;;2.50;;
18360;SDS011;9308;48.550;9.108;2023-02-03T07:21:47;3.20;;;2.60;;
18360;SDS011;9308;48.550;9.108;2023-02-03T07:24:13;2.93;;;2.67;;
18360;SDS011;9308;48.550;9.108;2023-02-03T07:26:38;2.83;;;2.60;;
18360;SDS011;9308;48.550;9.108;2023-02-03T07:29:04;2.63;;;2.43;;
18360;SDS011;9308;48.550;9.108;2023-02-03T07:31:29;4.40;;;2.40;;
18360;SDS011;9308;48.550;9.108;2023-02-03T07:33:55;3.40;;;3.00;;
18360;SDS011;9308;48.550;9.108;2023-02-03T07:36:21;4.10;;;2.67;;
18360;SDS011;9308;48.550;9.108;2023-02-03T07:38:48;3.03;;;2.43;;
18360;SDS011;9308;48.550;9.108;2023-02-03T07:41:13;2.70;;;2.50;;
18360;SDS011;9308;48.550;9.108;2023-02-03T07:43:39;2.60;;;2.50;;
18360;SDS011;9308;48.550;9.108;2023-02-03T07:46:04;2.40;;;2.20;;
18360;SDS011;9308;48.550;9.108;2023-02-03T07:48:30;2.60;;;2.40;;
18360;SDS011;9308;48.550;9.108;2023-02-03T07:50:56;2.47;;;2.10;;
18360;SDS011;9308;48.550;9.108;2023-02-03T07:53:21;2.40;;;2.20;;
18360;SDS011;9308;48.550;9.108;2023-02-03T07:55:47;2.40;;;2.20;;
18360;SDS011;9308;48.550;9.108;2023-02-03T07:58:12;2.63;;;2.30;;
18360;SDS011;9308;48.550;9.108;2023-02-03T08:00:39;2.00;;;1.90;;
18360;SDS011;9308;48.550;9.108;2023-02-03T08:03:04;2.33;;;2.13;;
18360;SDS011;9308;48.550;9.108;2023-02-03T08:05:30;2.10;;;1.90;;
18360;SDS011;9308;48.550;9.108;2023-02-03T08:07:55;3.73;;;2.70;;
18360;SDS011;9308;48.550;9.108;2023-02-03T08:10:21;3.43;;;2.30;;
18360;SDS011;9308;48.550;9.108;2023-02-03T08:12:47;2.33;;;2.13;;
18360;SDS011;9308;48.550;9.108;2023-02-03T08:15:12;2.10;;;2.00;;
18360;SDS011;9308;48.550;9.108;2023-02-03T08:17:38;2.70;;;2.00;;
18360;SDS011;9308;48.550;9.108;2023-02-03T08:20:05;2.50;;;2.30;;
18360;SDS011;9308;48.550;9.108;2023-02-03T08:22:32;3.10;;;2.50;;
18360;SDS011;9308;48.550;9.108;2023-02-03T08:24:57;2.40;;;2.20;;
18360;SDS011;9308;48.550;9.108;2023-02-03T08:27:23;2.50;;;2.40;;
18360;SDS011;9308;48.550;9.108;2023-02-03T08:29:48;2.40;;;2.20;;
18360;SDS011;9308;48.550;9.108;2023-02-03T08:32:15;2.70;;;2.50;;
18360;SDS011;9308;48.550;9.108;2023-02-03T08:34:42;3.43;;;2.37;;
18360;SDS011;9308;48.550;9.108;2023-02-03T08:37:09;2.50;;;2.30;;
18360;SDS011;9308;48.550;9.108;2023-02-03T08:39:35;2.40;;;2.20;;
18360;SDS011;9308;48.550;9.108;2023-02-03T08:42:02;2.50;;;2.30;;
18360;SDS011;9308;48.550;9.108;2023-02-03T08:44:28;2.60;;;2.40;;
18360;SDS011;9308;48.550;9.108;2023-02-03T08:46:55;2.50;;;2.30;;
18360;SDS011;9308;48.550;9.108;2023-02-03T08:49:21;2.47;;;2.37;;
18360;SDS011;9308;48.550;9.108;2023-02-03T08:51:47;2.50;;;2.30;;
18360;SDS011;9308;48.550;9.108;2023-02-03T08:54:13;2.40;;;2.20;;
18360;SDS011;9308;48.550;9.108;2023-02-03T08:56:39;2.87;;;2.50;;
18360;SDS011;9308;48.550;9.108;2023-02-03T08:59:05;3.53;;;2.27;;
18360;SDS011;9308;48.550;9.108;2023-02-03T09:01:31;2.87;;;2.57;;
18360;SDS011;9308;48.550;9.108;2023-02-03T09:03:57;2.97;;;2.50;;
18360;SDS011;9308;48.550;9.108;2023-02-03T09:06:23;2.43;;;2.20;;
18360;SDS011;9308;48.550;9.108;2023-02-03T09:08:48;3.03;;;2.60;;
18360;SDS011;9308;48.550;9.108;2023-02-03T09:11:15;2.40;;;2.30;;
18360;SDS011;9308;48.550;9.108;2023-02-03T09:13:42;2.17;;;1.97;;
18360;SDS011;9308;48.550;9.108;2023-02-03T09:16:14;2.20;;;2.00;;
18360;SDS011;9308;48.550;9.108;2023-02-03T09:18:45;3.60;;;2.40;;
18360;SDS011;9308;48.550;9.108;2023-02-03T09:21:11;2.00;;;1.90;;
18360;SDS011;9308;48.550;9.108;2023-02-03T09:23:38;2.90;;;2.60;;
18360;SDS011;9308;48.550;9.108;2023-02-03T09:26:04;3.17;;;2.83;;
18360;SDS011;9308;48.550;9.108;2023-02-03T09:28:31;2.50;;;2.30;;
18360;SDS011;9308;48.550;9.108;2023-02-03T09:31:00;2.23;;;2.00;;
18360;SDS011;9308;48.550;9.108;2023-02-03T09:33:44;2.40;;;2.20;;
18360;SDS011;9308;48.550;9.108;2023-02-03T09:36:10;2.00;;;1.90;;
18360;SDS011;9308;48.550;9.108;2023-02-03T09:38:37;2.23;;;2.10;;
18360;SDS011;9308;48.550;9.108;2023-02-03T09:41:11;2.80;;;2.60;;
18360;SDS011;9308;48.550;9.108;2023-02-03T09:43:45;2.50;;;2.27;;
18360;SDS011;9308;48.550;9.108;2023-02-03T09:46:34;2.03;;;1.80;;
18360;SDS011;9308;48.550;9.108;2023-02-03T09:49:11;3.03;;;2.17;;
18360;SDS011;9308;48.550;9.108;2023-02-03T09:51:45;2.80;;;2.03;;
18360;SDS011;9308;48.550;9.108;2023-02-03T09:54:16;2.33;;;2.13;;
18360;SDS011;9308;48.550;9.108;2023-02-03T09:56:46;1.97;;;1.87;;
18360;SDS011;9308;48.550;9.108;2023-02-03T09:59:17;1.90;;;1.80;;
18360;SDS011;9308;48.550;9.108;2023-02-03T10:12:57;3.90;;;2.10;;
18360;SDS011;9308;48.550;9.108;2023-02-03T10:15:43;2.70;;;2.50;;
18360;SDS011;9308;48.550;9.108;2023-02-03T10:18:23;1.97;;;1.87;;
18360;SDS011;9308;48.550;9.108;2023-02-03T10:20:53;1.60;;;1.50;;
18360;SDS011;9308;48.550;9.108;2023-02-03T10:23:35;1.40;;;1.30;;
18360;SDS011;9308;48.550;9.108;2023-02-03T10:26:06;1.80;;;1.60;;
18360;SDS011;9308;48.550;9.108;2023-02-03T10:28:41;1.73;;;1.47;;
18360;SDS011;9308;48.550;9.108;2023-02-03T10:31:16;1.47;;;1.43;;
18360;SDS011;9308;48.550;9.108;2023-02-03T10:33:45;3.90;;;1.67;;
18360;SDS011;9308;48.550;9.108;2023-02-03T10:36:29;1.70;;;1.50;;
18360;SDS011;9308;48.550;9.108;2023-02-03T10:42:21;1.83;;;1.73;;
18360;SDS011;9308;48.550;9.108;2023-02-03T10:44:57;2.00;;;1.53;;
18360;SDS011;9308;48.550;9.108;2023-02-03T10:47:31;1.93;;;1.57;;
18360;SDS011;9308;48.550;9.108;2023-02-03T10:50:00;2.40;;;1.70;;
18360;SDS011;9308;48.550;9.108;2023-02-03T10:52:39;1.60;;;1.50;;
18360;SDS011;9308;48.550;9.108;2023-02-03T10:55:51;1.50;;;1.40;;
18360;SDS011;9308;48.550;9.108;2023-02-03T10:57:51;1.70;;;1.50;;
18360;SDS011;9308;48.550;9.108;2023-02-03T11:03:01;1.63;;;1.53;;
18360;SDS011;9308;48.550;9.108;2023-02-03T11:05:30;1.77;;;1.50;;
18360;SDS011;9308;48.550;9.108;2023-02-03T11:07:55;1.50;;;1.40;;
18360;SDS011;9308;48.550;9.108;2023-02-03T11:10:34;2.20;;;1.90;;
18360;SDS011;9308;48.550;9.108;2023-02-03T11:13:22;1.70;;;1.60;;
18360;SDS011;9308;48.550;9.108;2023-02-03T11:18:45;2.43;;;1.60;;
18360;SDS011;9308;48.550;9.108;2023-02-03T11:21:20;3.17;;;1.40;;
18360;SDS011;9308;48.550;9.108;2023-02-03T11:23:49;1.60;;;1.50;;
18360;SDS011;9308;48.550;9.108;2023-02-03T11:26:17;1.70;;;1.60;;
18360;SDS011;9308;48.550;9.108;2023-02-03T11:28:45;1.33;;;1.30;;
18360;SDS011;9308;48.550;9.108;2023-02-03T11:31:20;1.60;;;1.50;;
18360;SDS011;9308;48.550;9.108;2023-02-03T11:33:53;3.13;;;1.60;;
18360;SDS011;9308;48.550;9.108;2023-02-03T11:36:24;1.90;;;1.80;;
18360;SDS011;9308;48.550;9.108;2023-02-03T11:38:51;1.30;;;1.20;;
18360;SDS011;9308;48.550;9.108;2023-02-03T11:41:32;1.50;;;1.40;;
18360;SDS011;9308;48.550;9.108;2023-02-03T11:44:02;1.47;;;1.37;;
18360;SDS011;9308;48.550;9.108;2023-02-03T11:46:36;4.17;;;1.80;;
18360;SDS011;9308;48.550;9.108;2023-02-03T11:49:04;1.87;;;1.40;;
18360;SDS011;9308;48.550;9.108;2023-02-03T11:52:09;1.47;;;1.37;;
18360;SDS011;9308;48.550;9.108;2023-02-03T11:54:47;1.30;;;1.30;;
18360;SDS011;9308;48.550;9.108;2023-02-03T12:00:17;1.93;;;1.37;;
18360;SDS011;9308;48.550;9.108;2023-02-03T12:02:59;2.30;;;1.37;;
18360;SDS011;9308;48.550;9.108;2023-02-03T12:11:31;1.77;;;1.67;;
18360;SDS011;9308;48.550;9.108;2023-02-03T12:21:44;2.40;;;1.30;;
18360;SDS011;9308;48.550;9.108;2023-02-03T12:24:18;1.33;;;1.30;;
18360;SDS011;9308;48.550;9.108;2023-02-03T12:27:09;1.20;;;1.20;;
18360;SDS011;9308;48.550;9.108;2023-02-03T12:29:51;1.57;;;1.40;;
18360;SDS011;9308;48.550;9.108;2023-02-03T12:32:46;1.77;;;1.50;;
18360;SDS011;9308;48.550;9.108;2023-02-03T12:38:11;1.60;;;1.50;;
18360;SDS011;9308;48.550;9.108;2023-02-03T12:40:58;1.60;;;1.50;;
18360;SDS011;9308;48.550;9.108;2023-02-03T12:43:33;1.70;;;1.60;;
18360;SDS011;9308;48.550;9.108;2023-02-03T12:46:13;1.40;;;1.40;;
18360;SDS011;9308;48.550;9.108;2023-02-03T12:48:47;1.70;;;1.60;;
18360;SDS011;9308;48.550;9.108;2023-02-03T12:51:40;1.73;;;1.60;;
18360;SDS011;9308;48.550;9.108;2023-02-03T12:54:17;1.80;;;1.57;;
18360;SDS011;9308;48.550;9.108;2023-02-03T12:56:55;1.93;;;1.70;;
18360;SDS011;9308;48.550;9.108;2023-02-03T12:59:24;1.63;;;1.53;;
18360;SDS011;9308;48.550;9.108;2023-02-03T13:01:58;1.73;;;1.50;;
18360;SDS011;9308;48.550;9.108;2023-02-03T13:04:35;1.50;;;1.40;;
18360;SDS011;9308;48.550;9.108;2023-02-03T13:10:02;1.20;;;1.20;;
18360;SDS011;9308;48.550;9.108;2023-02-03T13:12:38;1.33;;;1.33;;
18360;SDS011;9308;48.550;9.108;2023-02-03T13:18:22;1.67;;;1.57;;
18360;SDS011;9308;48.550;9.108;2023-02-03T13:20:53;2.50;;;1.80;;
18360;SDS011;9308;48.550;9.108;2023-02-03T13:23:19;2.10;;;2.00;;
18360;SDS011;9308;48.550;9.108;2023-02-03T13:25:48;1.70;;;1.60;;
18360;SDS011;9308;48.550;9.108;2023-02-03T13:39:34;5.57;;;1.47;;
18360;SDS011;9308;48.550;9.108;2023-02-03T13:44:40;1.43;;;1.33;;
18360;SDS011;9308;48.550;9.108;2023-02-03T13:47:18;1.43;;;1.43;;
18360;SDS011;9308;48.550;9.108;2023-02-03T13:49:49;1.83;;;1.73;;
18360;SDS011;9308;48.550;9.108;2023-02-03T13:52:36;1.20;;;1.20;;
18360;SDS011;9308;48.550;9.108;2023-02-03T13:55:18;2.43;;;1.43;;
18360;SDS011;9308;48.550;9.108;2023-02-03T13:57:52;1.80;;;1.70;;
18360;SDS011;9308;48.550;9.108;2023-02-03T14:05:50;1.60;;;1.50;;
18360;SDS011;9308;48.550;9.108;2023-02-03T14:16:54;1.53;;;1.43;;
18360;SDS011;9308;48.550;9.108;2023-02-03T14:21:50;1.60;;;1.50;;
18360;SDS011;9308;48.550;9.108;2023-02-03T14:24:19;1.80;;;1.50;;
18360;SDS011;9308;48.550;9.108;2023-02-03T14:26:46;1.60;;;1.50;;
18360;SDS011;9308;48.550;9.108;2023-02-03T14:29:23;1.80;;;1.70;;
18360;SDS011;9308;48.550;9.108;2023-02-03T14:32:01;2.43;;;1.57;;
18360;SDS011;9308;48.550;9.108;2023-02-03T14:34:50;1.47;;;1.47;;
18360;SDS011;9308;48.550;9.108;2023-02-03T14:37:25;1.60;;;1.50;;
18360;SDS011;9308;48.550;9.108;2023-02-03T14:40:14;1.47;;;1.30;;
18360;SDS011;9308;48.550;9.108;2023-02-03T14:42:59;1.43;;;1.33;;
18360;SDS011;9308;48.550;9.108;2023-02-03T14:59:29;1.40;;;1.30;;
18360;SDS011;9308;48.550;9.108;2023-02-03T15:04:27;1.50;;;1.40;;
18360;SDS011;9308;48.550;9.108;2023-02-03T15:06:52;1.80;;;1.70;;
18360;SDS011;9308;48.550;9.108;2023-02-03T15:11:49;1.33;;;1.30;;
18360;SDS011;9308;48.550;9.108;2023-02-03T15:14:22;1.97;;;1.87;;
18360;SDS011;9308;48.550;9.108;2023-02-03T15:16:53;1.93;;;1.83;;
18360;SDS011;9308;48.550;9.108;2023-02-03T15:19:23;1.90;;;1.80;;
18360;SDS011;9308;48.550;9.108;2023-02-03T15:21:51;1.87;;;1.77;;
18360;SDS011;9308;48.550;9.108;2023-02-03T15:24:18;1.40;;;1.30;;
18360;SDS011;9308;48.550;9.108;2023-02-03T15:26:49;2.27;;;2.00;;
18360;SDS011;9308;48.550;9.108;2023-02-03T15:29:18;1.60;;;1.50;;
18360;SDS011;9308;48.550;9.108;2023-02-03T15:31:50;1.37;;;1.27;;
18360;SDS011;9308;48.550;9.108;2023-02-03T15:34:22;1.80;;;1.63;;
18360;SDS011;9308;48.550;9.108;2023-02-03T15:36:54;1.80;;;1.70;;
18360;SDS011;9308;48.550;9.108;2023-02-03T15:39:31;1.80;;;1.70;;
18360;SDS011;9308;48.550;9.108;2023-02-03T15:41:58;1.70;;;1.60;;
18360;SDS011;9308;48.550;9.108;2023-02-03T15:44:32;2.27;;;2.17;;
18360;SDS011;9308;48.550;9.108;2023-02-03T15:47:02;2.10;;;2.00;;
18360;SDS011;9308;48.550;9.108;2023-02-03T15:49:40;2.20;;;2.10;;
18360;SDS011;9308;48.550;9.108;2023-02-03T15:52:15;3.80;;;3.50;;
18360;SDS011;9308;48.550;9.108;2023-02-03T15:54:45;2.77;;;2.57;;
18360;SDS011;9308;48.550;9.108;2023-02-03T15:57:24;2.77;;;2.57;;
18360;SDS011;9308;48.550;9.108;2023-02-03T15:59:59;2.00;;;1.90;;
18360;SDS011;9308;48.550;9.108;2023-02-03T16:02:29;4.63;;;2.10;;
18360;SDS011;9308;48.550;9.108;2023-02-03T16:05:02;2.17;;;1.70;;
18360;SDS011;9308;48.550;9.108;2023-02-03T16:07:29;1.93;;;1.83;;
18360;SDS011;9308;48.550;9.108;2023-02-03T16:09:56;1.87;;;1.77;;
18360;SDS011;9308;48.550;9.108;2023-02-03T16:12:23;2.00;;;1.90;;
18360;SDS011;9308;48.550;9.108;2023-02-03T16:14:54;1.87;;;1.77;;
18360;SDS011;9308;48.550;9.108;2023-02-03T16:17:54;2.03;;;1.93;;
18360;SDS011;9308;48.550;9.108;2023-02-03T16:20:22;1.80;;;1.70;;
18360;SDS011;9308;48.550;9.108;2023-02-03T16:23:00;2.53;;;2.33;;
18360;SDS011;9308;48.550;9.108;2023-02-03T16:26:00;2.20;;;2.10;;
18360;SDS011;9308;48.550;9.108;2023-02-03T16:28:41;3.83;;;3.53;;
18360;SDS011;9308;48.550;9.108;2023-02-03T16:31:25;2.47;;;2.27;;
18360;SDS011;9308;48.550;9.108;2023-02-03T16:34:11;2.30;;;2.20;;
18360;SDS011;9308;48.550;9.108;2023-02-03T16:36:57;2.40;;;2.20;;
18360;SDS011;9308;48.550;9.108;2023-02-03T16:39:41;3.10;;;2.90;;
18360;SDS011;9308;48.550;9.108;2023-02-03T16:42:25;2.40;;;1.83;;
18360;SDS011;9308;48.550;9.108;2023-02-03T16:45:13;3.03;;;2.83;;
18360;SDS011;9308;48.550;9.108;2023-02-03T16:47:59;3.27;;;3.07;;
18360;SDS011;9308;48.550;9.108;2023-02-03T16:50:43;3.83;;;3.63;;
18360;SDS011;9308;48.550;9.108;2023-02-03T16:53:18;2.63;;;2.53;;
18360;SDS011;9308;48.550;9.108;2023-02-03T16:55:46;2.37;;;2.27;;
18360;SDS011;9308;48.550;9.108;2023-02-03T16:58:11;2.20;;;2.10;;
18360;SDS011;9308;48.550;9.108;2023-02-03T17:00:38;2.30;;;2.20;;
18360;SDS011;9308;48.550;9.108;2023-02-03T17:03:06;3.73;;;3.53;;
18360;SDS011;9308;48.550;9.108;2023-02-03T17:05:37;5.13;;;4.83;;
18360;SDS011;9308;48.550;9.108;2023-02-03T17:08:04;3.00;;;2.30;;
18360;SDS011;9308;48.550;9.108;2023-02-03T17:10:31;2.03;;;1.93;;
18360;SDS011;9308;48.550;9.108;2023-02-03T17:12:58;2.20;;;2.10;;